Time;durP1;ratioP1;P1;durP2;ratioP2;P2;SDS_P1;SDS_P2;PMS_P1;PMS_P2;Temp;Humidity;BMP_temperature;BMP_pressure;BME280_temperature;BME280_humidity;BME280_pressure;Samples;Min_cycle;Max_cycle;Signal;HPM_P1;HPM_P2
2022/11/10 00:00:14;;;;;;;16.17;3.15;;;;;;;10.26;100.00;101454.25;5025231;28;20425;-49
2022/11/10 00:02:42;;;;;;;16.00;4.10;;;;;;;10.20;100.00;101463.13;5016709;28;20049;-53
2022/11/10 00:05:09;;;;;;;17.17;3.75;;;;;;;9.74;100.00;101394.81;5029159;28;20044;-53
2022/11/10 00:07:34;;;;;;;15.40;3.45;;;;;;;9.69;100.00;101401.91;5002393;28;20029;-52
2022/11/10 00:09:59;;;;;;;18.67;2.95;;;;;;;9.94;100.00;101460.13;5021901;28;20488;-51
2022/11/10 00:12:25;;;;;;;16.35;2.85;;;;;;;9.53;100.00;101403.09;5026597;28;20029;-52
2022/11/10 00:17:37;;;;;;;20.23;3.22;;;;;;;9.39;100.00;101402.50;5025324;28;20068;-49
2022/11/10 00:20:04;;;;;;;19.63;3.53;;;;;;;9.35;100.00;101406.94;4989703;28;20065;-52
2022/11/10 00:22:30;;;;;;;17.10;3.85;;;;;;;9.36;100.00;101424.47;5017537;28;20508;-49
2022/11/10 00:24:55;;;;;;;19.42;3.75;;;;;;;9.68;100.00;101480.81;5028618;28;20073;-48
2022/11/10 00:27:20;;;;;;;19.58;3.95;;;;;;;9.37;100.00;101414.81;5017486;28;20492;-51
2022/11/10 00:29:46;;;;;;;17.05;3.08;;;;;;;9.81;100.00;101475.28;5005775;28;20038;-48
2022/11/10 00:32:11;;;;;;;15.65;3.42;;;;;;;9.45;100.00;101408.53;5024509;28;20064;-50
2022/11/10 00:34:36;;;;;;;21.85;4.50;;;;;;;9.97;100.00;101475.84;5016731;28;20455;-50
2022/11/10 00:37:02;;;;;;;16.27;3.75;;;;;;;10.01;100.00;101470.50;5028586;28;20034;-55
2022/11/10 00:39:27;;;;;;;20.30;3.92;;;;;;;9.79;100.00;101416.59;5013925;28;20056;-49
2022/11/10 00:41:53;;;;;;;21.05;3.80;;;;;;;10.13;100.00;101472.91;5003991;28;20037;-54
2022/11/10 00:44:18;;;;;;;15.85;3.63;;;;;;;10.11;100.00;101489.59;5018951;28;20042;-48
2022/11/10 00:46:44;;;;;;;23.67;4.38;;;;;;;10.07;100.00;101487.91;5028455;28;20041;-49
2022/11/10 00:49:09;;;;;;;22.17;4.10;;;;;;;10.08;100.00;101484.41;4998338;28;20381;-55
2022/11/10 00:51:35;;;;;;;28.55;3.92;;;;;;;10.03;100.00;101492.41;5006960;28;20282;-47
2022/11/10 00:54:00;;;;;;;19.20;3.35;;;;;;;9.99;100.00;101492.47;5022700;28;20117;-55
2022/11/10 00:56:25;;;;;;;17.23;3.50;;;;;;;9.64;100.00;101445.81;5017791;28;20069;-49
2022/11/10 00:58:51;;;;;;;19.00;4.28;;;;;;;9.61;100.00;101436.22;5028559;28;20044;-52
2022/11/10 01:01:18;;;;;;;22.88;4.78;;;;;;;9.63;100.00;101431.81;4999393;28;20033;-53
2022/11/10 01:03:43;;;;;;;20.27;4.45;;;;;;;10.00;100.00;101502.97;5006098;28;20038;-54
2022/11/10 01:06:13;;;;;;;26.27;5.10;;;;;;;9.72;100.00;101450.94;5008930;28;20405;-47
2022/11/10 01:08:40;;;;;;;16.37;4.23;;;;;;;9.97;100.00;101495.13;5022021;28;20034;-48
2022/11/10 01:11:15;;;;;;;19.50;4.45;;;;;;;9.94;100.00;101489.06;5006509;28;20280;-48
2022/11/10 01:13:43;;;;;;;27.17;4.57;;;;;;;9.92;100.00;101490.88;5023279;28;20392;-52
2022/11/10 01:16:14;;;;;;;17.17;5.18;;;;;;;10.01;100.00;101507.31;5015979;28;20030;-47
2022/11/10 01:18:40;;;;;;;18.50;3.92;;;;;;;9.69;100.00;101440.50;5023546;28;20104;-49
2022/11/10 01:21:06;;;;;;;19.48;4.70;;;;;;;10.07;100.00;101498.44;5006991;28;20057;-52
2022/11/10 01:23:32;;;;;;;31.33;5.40;;;;;;;9.70;100.00;101442.19;5030278;28;20072;-49
2022/11/10 01:26:01;;;;;;;22.40;4.50;;;;;;;9.98;100.00;101494.22;5023676;28;20472;-49
2022/11/10 01:28:27;;;;;;;21.10;4.85;;;;;;;9.78;100.00;101469.25;5015672;28;20084;-53
2022/11/10 01:30:57;;;;;;;15.27;3.85;;;;;;;9.87;100.00;101496.19;5024699;28;20050;-54
2022/11/10 01:33:22;;;;;;;28.33;5.32;;;;;;;9.82;100.00;101511.22;5021996;28;20034;-50
2022/11/10 01:35:47;;;;;;;23.15;4.22;;;;;;;9.85;100.00;101513.78;5031946;28;20535;-48
2022/11/10 01:38:13;;;;;;;26.58;5.35;;;;;;;9.52;100.00;101449.53;5019316;28;20033;-49
2022/11/10 01:40:38;;;;;;;23.75;4.05;;;;;;;9.49;100.00;101443.47;5028770;28;20041;-49
2022/11/10 01:43:03;;;;;;;21.38;5.32;;;;;;;9.47;100.00;101448.78;5024581;28;20033;-52
2022/11/10 01:45:45;;;;;;;28.73;5.38;;;;;;;9.48;100.00;101449.63;5029505;28;20400;-49
2022/11/10 01:48:16;;;;;;;21.98;5.38;;;;;;;9.47;100.00;101454.03;5018936;28;20025;-51
2022/11/10 01:50:42;;;;;;;28.00;5.93;;;;;;;9.82;100.00;101515.59;5009378;28;20160;-53
2022/11/10 01:53:11;;;;;;;24.67;4.93;;;;;;;9.72;100.00;101499.09;5008765;28;20116;-54
2022/11/10 01:55:38;;;;;;;26.83;4.90;;;;;;;9.55;100.00;101477.53;5019807;28;20401;-50
2022/11/10 01:58:03;;;;;;;16.02;5.07;;;;;;;9.81;100.00;101534.88;5013846;28;20052;-52
2022/11/10 02:00:29;;;;;;;22.77;5.38;;;;;;;9.44;100.00;101476.84;4987555;28;20039;-51
2022/11/10 02:03:17;;;;;;;23.35;5.32;;;;;;;9.64;100.00;101527.31;5014906;28;20052;-51
2022/11/10 02:05:43;;;;;;;28.52;5.30;;;;;;;9.72;100.00;101540.34;5018736;28;20238;-49
2022/11/10 02:08:10;;;;;;;17.17;5.07;;;;;;;9.34;100.00;101481.41;5031325;28;20038;-52
2022/11/10 02:10:36;;;;;;;25.63;5.88;;;;;;;9.39;100.00;101510.22;5004127;28;20056;-48
2022/11/10 02:13:01;;;;;;;26.60;4.90;;;;;;;9.57;100.00;101563.34;5024158;28;20080;-49
2022/11/10 02:15:27;;;;;;;24.17;4.75;;;;;;;9.29;100.00;101516.53;4994816;28;20034;-50
2022/11/10 02:17:52;;;;;;;22.52;4.70;;;;;;;9.24;100.00;101519.25;5000428;28;20037;-52
2022/11/10 02:20:19;;;;;;;27.20;4.70;;;;;;;9.19;100.00;101513.19;5030097;28;20030;-51
2022/11/10 02:22:45;;;;;;;26.48;4.93;;;;;;;9.36;100.00;101554.94;5022930;28;20069;-53
2022/11/10 02:25:13;;;;;;;21.02;5.15;;;;;;;9.27;100.00;101549.84;5022760;28;20485;-55
2022/11/10 02:27:38;;;;;;;25.85;5.47;;;;;;;9.07;100.00;101523.88;5030120;28;20037;-51
2022/11/10 02:30:04;;;;;;;28.70;5.75;;;;;;;9.48;100.00;101586.28;5017677;28;20096;-51
2022/11/10 02:32:29;;;;;;;25.67;5.22;;;;;;;9.20;100.00;101522.78;5010242;28;20030;-48
2022/11/10 02:34:54;;;;;;;24.17;4.07;;;;;;;9.44;100.00;101563.56;5024143;28;20473;-53
2022/11/10 02:37:20;;;;;;;27.15;5.55;;;;;;;9.51;100.00;101587.13;5021410;28;20040;-54
2022/11/10 02:39:45;;;;;;;21.98;5.38;;;;;;;9.17;100.00;101535.97;5006512;28;20018;-52
2022/11/10 02:42:10;;;;;;;27.60;4.90;;;;;;;9.17;100.00;101546.47;5030444;28;20048;-52
2022/11/10 02:44:36;;;;;;;26.23;4.72;;;;;;;9.10;100.00;101536.97;5021149;28;20033;-49
2022/11/10 02:47:02;;;;;;;26.42;5.32;;;;;;;9.44;100.00;101611.75;5005801;28;20038;-54
2022/11/10 02:49:27;;;;;;;25.83;5.18;;;;;;;9.37;100.00;101610.09;5028311;28;20037;-47
2022/11/10 02:51:54;;;;;;;21.33;4.35;;;;;;;9.30;100.00;101594.44;5017539;28;20097;-48
2022/11/10 02:54:19;;;;;;;21.50;5.15;;;;;;;8.90;100.00;101544.28;5029378;28;20386;-54
2022/11/10 02:56:45;;;;;;;28.15;4.60;;;;;;;9.22;100.00;101620.84;5022331;28;20036;-48
2022/11/10 02:59:10;;;;;;;21.27;5.80;;;;;;;9.14;100.00;101609.56;5004493;28;20443;-52
2022/11/10 03:01:36;;;;;;;23.98;4.70;;;;;;;9.22;100.00;101617.34;5029192;28;20072;-51
2022/11/10 03:04:01;;;;;;;18.20;4.85;;;;;;;9.14;100.00;101617.44;4999976;28;20034;-50
2022/11/10 03:06:26;;;;;;;25.63;5.28;;;;;;;8.79;100.00;101560.16;5010269;28;20057;-52
2022/11/10 03:08:52;;;;;;;31.17;5.97;;;;;;;8.77;100.00;101556.69;5023215;28;20416;-51
2022/11/10 03:11:17;;;;;;;20.23;4.78;;;;;;;9.17;100.00;101625.28;5021205;28;20045;-52
2022/11/10 03:13:42;;;;;;;23.90;5.18;;;;;;;9.15;100.00;101621.81;5030103;28;20041;-52
2022/11/10 03:16:07;;;;;;;24.48;5.38;;;;;;;9.20;100.00;101627.88;5016954;28;20539;-52
2022/11/10 03:18:33;;;;;;;15.90;3.95;;;;;;;9.16;100.00;101625.31;5027008;28;20053;-52
2022/11/10 03:20:58;;;;;;;17.75;4.90;;;;;;;8.76;100.00;101570.69;5023753;28;20037;-48
2022/11/10 03:23:23;;;;;;;21.27;4.97;;;;;;;8.81;100.00;101574.16;5020241;28;20083;-51
2022/11/10 03:25:49;;;;;;;16.33;4.55;;;;;;;9.21;100.00;101637.50;5012150;28;20448;-51
2022/11/10 03:28:15;;;;;;;27.75;5.13;;;;;;;9.24;100.00;101626.94;4999219;28;20532;-47
2022/11/10 03:30:41;;;;;;;27.95;5.85;;;;;;;9.22;100.00;101633.97;5025553;28;20042;-51
2022/11/10 03:33:07;;;;;;;19.65;4.88;;;;;;;9.25;100.00;101640.94;5024850;28;20080;-50
2022/11/10 03:35:32;;;;;;;23.48;5.13;;;;;;;9.28;100.00;101647.00;5018651;28;20034;-57
2022/11/10 03:37:58;;;;;;;25.48;4.97;;;;;;;9.07;100.00;101591.28;5029712;28;20032;-51
2022/11/10 03:40:24;;;;;;;20.48;5.28;;;;;;;9.31;100.00;101635.59;5018412;28;20040;-52
2022/11/10 03:42:49;;;;;;;30.25;5.35;;;;;;;9.26;100.00;101640.03;5024266;28;20120;-56
2022/11/10 03:45:15;;;;;;;28.83;5.40;;;;;;;8.98;100.00;101580.03;5025405;28;20092;-51
2022/11/10 03:47:43;;;;;;;19.75;4.53;;;;;;;9.22;100.00;101636.63;5017304;28;20052;-49
2022/11/10 03:50:09;;;;;;;27.52;5.35;;;;;;;9.27;100.00;101650.53;5029596;28;20112;-50
2022/11/10 03:52:34;;;;;;;23.08;4.38;;;;;;;8.97;100.00;101608.94;5002436;28;20034;-54
2022/11/10 03:54:59;;;;;;;50.42;6.65;;;;;;;9.23;100.00;101661.97;5004998;28;20478;-50
2022/11/10 03:57:25;;;;;;;21.02;4.22;;;;;;;9.27;100.00;101676.81;5026542;28;20033;-56
2022/11/10 03:59:50;;;;;;;20.20;4.65;;;;;;;8.86;100.00;101609.09;4998510;28;20139;-53
2022/11/10 04:02:15;;;;;;;19.23;4.78;;;;;;;8.92;100.00;101616.88;5027839;28;20029;-48
2022/11/10 04:10:09;;;;;;;18.27;5.05;;;;;;;9.23;100.00;101687.38;5014300;28;20088;-48
2022/11/10 04:18:23;;;;;;;30.85;5.25;;;;;;;9.26;100.00;101703.09;5029125;28;20363;-55
2022/11/10 04:20:49;;;;;;;28.17;4.80;;;;;;;9.24;100.00;101687.38;5021387;28;20393;-54
2022/11/10 04:23:27;;;;;;;25.00;5.60;;;;;;;9.18;100.00;101673.44;5002355;28;20042;-55
2022/11/10 04:28:38;;;;;;;25.50;5.15;;;;;;;9.31;100.00;101694.25;5019797;28;20142;-50
2022/11/10 04:31:03;;;;;;;28.95;6.13;;;;;;;9.25;100.00;101691.69;5021471;28;20073;-56
2022/11/10 04:33:29;;;;;;;31.83;5.45;;;;;;;8.92;100.00;101637.88;5026642;28;20033;-53
2022/11/10 04:35:54;;;;;;;21.17;4.85;;;;;;;9.25;100.00;101698.75;5015748;28;20029;-48
2022/11/10 04:38:19;;;;;;;26.35;6.28;;;;;;;9.14;100.00;101690.97;5027247;28;20044;-52
2022/11/10 04:40:45;;;;;;;23.42;4.85;;;;;;;9.01;100.00;101663.16;5019718;28;20487;-51
2022/11/10 04:43:10;;;;;;;30.98;6.32;;;;;;;9.31;100.00;101717.91;5020678;28;20050;-50
2022/11/10 04:45:35;;;;;;;30.75;5.95;;;;;;;9.34;100.00;101728.38;5027090;28;20116;-49
2022/11/10 04:48:00;;;;;;;31.83;6.30;;;;;;;8.98;100.00;101678.94;5015807;28;20392;-54
2022/11/10 04:50:26;;;;;;;25.58;5.07;;;;;;;8.97;100.00;101671.94;5026489;28;20030;-51
2022/11/10 04:52:51;;;;;;;25.98;5.30;;;;;;;8.91;100.00;101670.28;5003626;28;20396;-48
2022/11/10 04:55:16;;;;;;;25.85;6.18;;;;;;;9.27;100.00;101755.63;5001825;28;20117;-49
2022/11/10 04:57:42;;;;;;;19.55;4.40;;;;;;;9.24;100.00;101758.28;5028022;28;20033;-51
2022/11/10 05:00:09;;;;;;;21.80;5.38;;;;;;;9.20;100.00;101742.56;5015234;28;20030;-55
2022/11/10 05:02:35;;;;;;;27.50;5.05;;;;;;;9.10;100.00;101725.19;5007641;28;20034;-51
2022/11/10 05:05:00;;;;;;;26.20;6.07;;;;;;;8.77;100.00;101680.06;4988655;28;20037;-52
2022/11/10 05:07:25;;;;;;;24.13;6.78;;;;;;;9.10;100.00;101741.84;5018150;28;20037;-51
2022/11/10 05:09:51;;;;;;;26.42;6.28;;;;;;;9.13;100.00;101735.66;5010954;28;20037;-51
2022/11/10 05:12:16;;;;;;;35.90;7.80;;;;;;;8.84;100.00;101686.13;5016284;28;20087;-50
2022/11/10 05:14:41;;;;;;;26.15;6.63;;;;;;;9.11;100.00;101738.28;5023925;28;20037;-49
2022/11/10 05:17:07;;;;;;;25.65;6.55;;;;;;;9.23;100.00;101756.53;5023359;28;20044;-48
2022/11/10 05:19:32;;;;;;;23.13;7.78;;;;;;;8.89;100.00;101700.94;5017123;28;20433;-50
2022/11/10 05:21:57;;;;;;;24.05;6.13;;;;;;;9.19;100.00;101760.13;5010375;28;20447;-50
2022/11/10 05:24:22;;;;;;;21.98;7.00;;;;;;;9.23;100.00;101756.53;5016956;28;20104;-48
2022/11/10 05:26:48;;;;;;;28.50;6.97;;;;;;;9.24;100.00;101757.41;5005405;28;20125;-55
2022/11/10 05:29:13;;;;;;;24.42;7.50;;;;;;;9.12;100.00;101733.91;5023903;28;20037;-51
2022/11/10 05:31:38;;;;;;;24.90;7.38;;;;;;;9.04;100.00;101729.66;5015717;28;20505;-49
2022/11/10 05:34:04;;;;;;;29.75;8.15;;;;;;;9.24;100.00;101767.94;5028180;28;20030;-54
2022/11/10 05:36:29;;;;;;;26.30;6.60;;;;;;;9.08;100.00;101738.34;5017767;28;20033;-49
2022/11/10 05:38:54;;;;;;;23.70;6.55;;;;;;;9.27;100.00;101778.41;5022102;28;20041;-51
2022/11/10 05:41:19;;;;;;;22.35;6.55;;;;;;;8.70;100.00;101680.19;5006964;28;20040;-52
2022/11/10 05:43:45;;;;;;;30.70;8.18;;;;;;;9.23;100.00;101774.06;5014926;28;20473;-50
2022/11/10 05:46:11;;;;;;;35.50;7.80;;;;;;;9.24;100.00;101766.16;5027791;28;20072;-53
2022/11/10 05:48:36;;;;;;;27.70;7.43;;;;;;;9.23;100.00;101766.19;5018758;28;20044;-56
2022/11/10 05:51:01;;;;;;;22.63;6.88;;;;;;;9.20;100.00;101774.09;5021963;28;20473;-49
2022/11/10 05:53:26;;;;;;;17.15;5.78;;;;;;;9.16;100.00;101764.53;5029033;28;20037;-50
2022/11/10 05:55:52;;;;;;;30.27;6.75;;;;;;;9.23;100.00;101772.31;5000934;28;20449;-53
2022/11/10 05:58:17;;;;;;;26.42;6.65;;;;;;;8.85;100.00;101701.84;5030529;28;20021;-50
2022/11/10 06:00:42;;;;;;;26.85;6.75;;;;;;;9.26;100.00;101769.63;5005264;28;20037;-52
2022/11/10 06:03:12;;;;;;;29.38;7.30;;;;;;;9.22;100.00;101762.69;5023646;28;20076;-50
2022/11/10 06:05:38;;;;;;;17.83;6.10;;;;;;;9.27;100.00;101797.66;5012767;28;20075;-52
2022/11/10 06:08:04;;;;;;;17.60;6.30;;;;;;;8.89;100.00;101735.06;5018292;28;20073;-54
2022/11/10 06:10:30;;;;;;;27.52;6.35;;;;;;;8.98;100.00;101744.59;5028521;28;20034;-55
2022/11/10 06:12:56;;;;;;;25.77;6.32;;;;;;;9.31;100.00;101814.25;5024467;28;20041;-51
2022/11/10 06:15:21;;;;;;;27.83;6.25;;;;;;;8.98;100.00;101748.09;5003858;28;20037;-55
2022/11/10 06:17:47;;;;;;;27.00;5.90;;;;;;;9.29;100.00;101823.91;5013728;28;20481;-50
2022/11/10 06:20:13;;;;;;;24.08;5.95;;;;;;;9.01;100.00;101761.19;5001152;28;20315;-46
2022/11/10 06:22:39;;;;;;;21.67;5.47;;;;;;;9.05;100.00;101776.00;5009738;28;20042;-52
2022/11/10 06:25:05;;;;;;;24.48;5.38;;;;;;;9.04;100.00;101779.53;5008086;28;20033;-52
2022/11/10 06:27:30;;;;;;;26.52;5.93;;;;;;;8.88;100.00;101764.81;5019987;28;20038;-50
2022/11/10 06:29:56;;;;;;;25.30;5.97;;;;;;;9.19;100.00;101831.03;5030782;28;20060;-55
2022/11/10 06:32:21;;;;;;;29.95;7.13;;;;;;;8.95;100.00;101794.53;5019513;28;20084;-51
2022/11/10 06:34:46;;;;;;;28.58;6.88;;;;;;;8.87;100.00;101770.94;5026039;28;20041;-54
2022/11/10 06:37:12;;;;;;;19.25;5.65;;;;;;;9.14;100.00;101824.94;5026357;28;20053;-47
2022/11/10 06:39:37;;;;;;;29.52;5.90;;;;;;;8.86;100.00;101774.50;5001307;28;20044;-48
2022/11/10 06:42:02;;;;;;;30.38;7.05;;;;;;;9.24;100.00;101839.72;5030591;28;20107;-49
2022/11/10 06:44:28;;;;;;;23.38;6.60;;;;;;;9.31;100.00;101841.38;5019920;28;20489;-50
2022/11/10 06:46:53;;;;;;;23.00;6.38;;;;;;;9.25;100.00;101827.47;5024961;28;20041;-48
2022/11/10 06:49:18;;;;;;;24.42;5.95;;;;;;;9.36;100.00;101863.25;5027229;28;20094;-48
2022/11/10 06:51:44;;;;;;;21.98;6.30;;;;;;;9.41;100.00;101878.94;5000337;28;20549;-50
2022/11/10 06:54:09;;;;;;;24.67;5.07;;;;;;;9.12;100.00;101833.72;5030736;28;20489;-53
2022/11/10 06:56:34;;;;;;;27.25;6.18;;;;;;;9.32;100.00;101860.66;5020787;28;20070;-49
2022/11/10 06:59:00;;;;;;;26.88;6.28;;;;;;;9.03;100.00;101829.44;5023588;28;20139;-50
2022/11/10 07:01:25;;;;;;;26.50;5.15;;;;;;;9.18;100.00;101852.06;5010070;28;20033;-49
2022/11/10 07:03:53;;;;;;;17.13;5.32;;;;;;;9.42;100.00;101893.84;5016635;28;20485;-50
2022/11/10 07:06:19;;;;;;;24.52;6.55;;;;;;;9.08;100.00;101835.50;5029205;28;20042;-52
2022/11/10 07:08:45;;;;;;;23.23;6.40;;;;;;;9.43;100.00;101893.81;5022041;28;20465;-53
2022/11/10 07:11:10;;;;;;;21.08;5.07;;;;;;;9.51;100.00;101891.97;5022121;28;20069;-48
2022/11/10 07:13:35;;;;;;;24.25;5.60;;;;;;;9.20;100.00;101824.88;5028728;28;20030;-54
2022/11/10 07:16:06;;;;;;;19.25;5.85;;;;;;;8.94;100.00;101772.63;4999786;28;20038;-53
2022/11/10 07:18:31;;;;;;;22.13;5.53;;;;;;;9.44;100.00;101857.88;5027273;28;20028;-47
2022/11/10 07:20:56;;;;;;;21.80;5.63;;;;;;;9.36;100.00;101823.84;5023583;28;20038;-48
2022/11/10 07:23:22;;;;;;;28.05;6.00;;;;;;;9.70;100.00;101876.84;5020181;28;20062;-53
2022/11/10 07:25:47;;;;;;;18.02;5.20;;;;;;;9.68;100.00;101868.13;5012218;28;20045;-51
2022/11/10 07:28:12;;;;;;;23.92;6.55;;;;;;;9.79;100.00;101883.75;4999693;28;20037;-51
2022/11/10 07:30:40;;;;;;;25.25;5.78;;;;;;;9.77;100.00;101881.16;5025654;28;20053;-52
2022/11/10 07:33:10;;;;;;;17.90;5.25;;;;;;;9.81;100.00;101890.72;5024560;28;20108;-50
2022/11/10 07:35:36;;;;;;;28.20;6.07;;;;;;;9.54;100.00;101839.34;5000594;28;20038;-53
2022/11/10 07:38:04;;;;;;;22.58;6.70;;;;;;;9.68;100.00;101873.38;5029709;28;20272;-47
2022/11/10 07:40:30;;;;;;;26.27;6.25;;;;;;;9.59;100.00;101865.59;5019041;28;20518;-49
2022/11/10 07:42:55;;;;;;;24.83;5.78;;;;;;;9.95;100.00;101916.88;5006034;28;20116;-50
2022/11/10 07:45:21;;;;;;;26.95;5.40;;;;;;;9.75;100.00;101864.50;5026078;28;20034;-49
2022/11/10 07:47:46;;;;;;;17.88;5.35;;;;;;;10.10;100.00;101908.75;5016574;28;20052;-49
2022/11/10 07:50:12;;;;;;;23.13;5.28;;;;;;;9.92;100.00;101846.78;5011635;28;20037;-49
2022/11/10 07:52:37;;;;;;;30.75;5.43;;;;;;;10.10;100.00;101849.13;5002482;28;20025;-49
2022/11/10 07:55:04;;;;;;;18.95;5.75;;;;;;;10.46;100.00;101910.03;5022037;28;20042;-48
2022/11/10 07:57:30;;;;;;;17.88;5.15;;;;;;;10.62;100.00;101919.47;4999872;28;20034;-49
2022/11/10 07:59:55;;;;;;;18.35;4.55;;;;;;;10.68;100.00;101909.69;5029191;28;20045;-51
2022/11/10 08:02:20;;;;;;;22.75;4.88;;;;;;;10.77;100.00;101915.72;5017615;28;20030;-50
2022/11/10 08:04:45;;;;;;;16.00;4.43;;;;;;;10.27;100.00;101821.75;5024450;28;20037;-49
2022/11/10 08:07:11;;;;;;;22.38;5.40;;;;;;;10.62;100.00;101872.06;5004611;28;20138;-47
2022/11/10 08:09:36;;;;;;;23.58;5.05;;;;;;;10.97;100.00;101934.69;5016015;28;20053;-50
2022/11/10 08:12:01;;;;;;;17.95;4.68;;;;;;;11.07;100.00;101926.59;5028928;28;20044;-49
2022/11/10 08:14:27;;;;;;;19.08;4.43;;;;;;;11.08;100.00;101919.56;5017531;28;20052;-50
2022/11/10 08:16:52;;;;;;;18.52;4.47;;;;;;;11.08;100.00;101944.16;5021559;28;20034;-51
2022/11/10 08:19:17;;;;;;;16.17;4.30;;;;;;;10.92;100.00;101928.59;5025158;28;20121;-50
2022/11/10 08:21:43;;;;;;;17.33;4.65;;;;;;;10.76;100.00;101901.66;4998585;28;20045;-51
2022/11/10 08:24:08;;;;;;;16.50;3.88;;;;;;;10.91;100.00;101898.78;5027685;28;20030;-49
2022/11/10 08:26:33;;;;;;;16.13;4.68;;;;;;;11.17;100.00;101954.53;5000259;28;20067;-47
2022/11/10 08:28:59;;;;;;;19.92;5.15;;;;;;;11.20;100.00;101953.63;5021486;28;20484;-48
2022/11/10 08:31:24;;;;;;;17.35;4.43;;;;;;;10.87;100.00;101902.34;5024657;28;20057;-46
2022/11/10 08:33:49;;;;;;;16.98;4.20;;;;;;;11.16;100.00;101951.91;4997100;28;20029;-49
2022/11/10 08:36:15;;;;;;;16.08;4.10;;;;;;;11.15;100.00;101961.59;5027096;28;20539;-48
2022/11/10 08:38:40;;;;;;;12.52;3.95;;;;;;;11.18;100.00;101965.94;5018939;28;20037;-48
2022/11/10 08:41:05;;;;;;;13.85;3.83;;;;;;;11.17;100.00;101966.84;5024401;28;20051;-49
2022/11/10 08:43:30;;;;;;;15.27;4.40;;;;;;;11.05;100.00;101945.97;5016858;28;20053;-51
2022/11/10 08:45:56;;;;;;;14.95;4.45;;;;;;;10.88;100.00;101916.41;5027462;28;20447;-49
2022/11/10 08:48:21;;;;;;;14.57;3.95;;;;;;;11.14;100.00;101959.00;5015133;28;20072;-48
2022/11/10 08:50:48;;;;;;;14.50;4.07;;;;;;;10.95;100.00;101924.16;5004527;28;20099;-50
2022/11/10 08:53:23;;;;;;;19.00;4.68;;;;;;;11.00;100.00;101926.75;5001416;28;20056;-48
2022/11/10 08:55:49;;;;;;;19.88;4.55;;;;;;;10.98;100.00;101928.50;5027373;28;20037;-48
2022/11/10 08:58:16;;;;;;;13.23;4.35;;;;;;;11.03;100.00;101914.34;5014972;28;20044;-50
2022/11/10 09:00:42;;;;;;;13.90;3.78;;;;;;;11.14;100.00;101906.28;5022527;28;20037;-46
2022/11/10 09:03:12;;;;;;;18.75;3.78;;;;;;;11.28;100.00;101917.44;5022197;28;20038;-48
2022/11/10 09:05:38;;;;;;;18.15;4.07;;;;;;;11.62;100.00;101970.41;4997900;28;20037;-48
2022/11/10 09:08:03;;;;;;;13.07;3.78;;;;;;;11.64;100.00;101964.25;5027093;28;20037;-53
2022/11/10 09:10:30;;;;;;;20.48;3.60;;;;;;;11.47;100.00;101916.19;5010826;28;20405;-53
2022/11/10 09:13:00;;;;;;;20.02;4.55;;;;;;;11.83;100.00;101989.38;5003152;28;20038;-47
2022/11/10 09:15:26;;;;;;;17.37;4.07;;;;;;;11.90;100.00;101978.72;4999503;28;20513;-51
2022/11/10 09:17:52;;;;;;;15.77;3.72;;;;;;;11.96;100.00;101971.56;5027275;28;20347;-53
2022/11/10 09:20:17;;;;;;;14.20;4.55;;;;;;;12.11;100.00;101980.94;5014032;28;20041;-50
2022/11/10 09:22:42;;;;;;;19.88;4.47;;;;;;;12.16;100.00;101993.13;5021764;28;20176;-49
2022/11/10 09:25:08;;;;;;;15.02;4.18;;;;;;;12.17;100.00;101975.53;5003398;28;20111;-47
2022/11/10 09:27:37;;;;;;;19.58;3.33;;;;;;;12.38;100.00;101996.16;5019056;28;20431;-46
2022/11/10 09:30:07;;;;;;;15.68;4.38;;;;;;;12.20;100.00;101949.91;5012942;28;20485;-45
2022/11/10 09:32:32;;;;;;;15.13;3.95;;;;;;;12.32;100.00;101949.66;5020517;28;20366;-48
2022/11/10 09:34:58;;;;;;;15.55;3.75;;;;;;;12.46;100.00;101967.84;5024508;28;20044;-48
2022/11/10 09:37:24;;;;;;;16.95;4.10;;;;;;;12.76;100.00;101998.84;5009897;28;20038;-50
2022/11/10 09:39:49;;;;;;;20.20;4.07;;;;;;;12.95;100.00;102009.84;5017602;28;20478;-49
2022/11/10 09:42:36;;;;;;;17.02;3.58;;;;;;;13.14;100.00;102020.88;5030379;28;20040;-47
2022/11/10 09:45:07;;;;;;;14.27;3.53;;;;;;;13.31;100.00;102035.41;5007162;28;20029;-47
2022/11/10 09:47:39;;;;;;;14.93;4.50;;;;;;;13.14;100.00;101989.16;4996154;28;20481;-47
2022/11/10 09:50:05;;;;;;;14.73;3.58;;;;;;;13.29;100.00;101987.00;5030872;28;20026;-48
2022/11/10 09:52:33;;;;;;;17.40;4.25;;;;;;;13.79;100.00;102040.38;5020207;28;20485;-49
2022/11/10 09:55:04;;;;;;;16.77;4.05;;;;;;;13.58;100.00;102015.34;5006540;28;20038;-47
2022/11/10 09:57:29;;;;;;;;;;;;;;;13.95;100.00;102065.53;5011074;28;20033;-49
2022/11/10 09:59:55;;;;;;;11.65;3.55;;;;;;;13.80;100.00;102043.00;4999963;28;19933;-50
2022/11/10 10:02:30;;;;;;;11.18;3.30;;;;;;;14.03;100.00;102100.59;5026862;28;20036;-54
2022/11/10 10:05:32;;;;;;;13.43;3.47;;;;;;;14.08;100.00;102115.44;5015533;28;20038;-54
2022/11/10 10:08:18;;;;;;;11.82;4.57;;;;;;;14.06;100.00;102124.34;5013148;28;20038;-48
2022/11/10 10:10:48;;;;;;;15.20;3.60;;;;;;;14.16;100.00;102122.31;5025684;28;20038;-49
2022/11/10 10:13:22;;;;;;;16.42;3.35;;;;;;;13.98;100.00;102074.25;5008426;28;20037;-50
2022/11/10 10:15:56;;;;;;;13.70;3.28;;;;;;;14.32;100.00;102121.91;4999318;28;20497;-45
2022/11/10 10:18:33;;;;;;;15.95;3.90;;;;;;;14.21;100.00;102089.53;5028568;28;20029;-51
2022/11/10 10:21:04;;;;;;;14.75;3.78;;;;;;;14.51;100.00;102120.47;4996434;28;20080;-53
2022/11/10 10:23:35;;;;;;;10.35;2.83;;;;;;;14.50;100.00;102096.69;5009741;28;20084;-48
2022/11/10 10:26:00;;;;;;;10.48;2.85;;;;;;;14.61;100.00;102118.44;5017065;28;20057;-47
2022/11/10 10:28:37;;;;;;;14.25;3.22;;;;;;;14.75;100.00;102113.59;5027919;28;20038;-49
2022/11/10 10:31:13;;;;;;;14.23;3.63;;;;;;;14.81;100.00;102128.44;5023964;28;20440;-50
2022/11/10 10:33:38;;;;;;;12.32;3.20;;;;;;;14.81;100.00;102116.06;5017822;28;20153;-49
2022/11/10 10:36:25;;;;;;;15.15;3.55;;;;;;;14.79;100.00;102131.16;5011507;28;20120;-48
2022/11/10 10:39:05;;;;;;;11.18;3.03;;;;;;;14.51;100.00;102095.75;5003118;28;20029;-50
2022/11/10 10:41:32;;;;;;;13.63;3.50;;;;;;;14.77;100.00;102137.41;5027663;28;20029;-47
2022/11/10 10:43:59;;;;;;;12.73;3.10;;;;;;;14.47;100.00;102104.72;5016748;28;20454;-50
2022/11/10 10:46:27;;;;;;;17.75;3.25;;;;;;;14.68;100.00;102141.22;5009893;28;20092;-50
2022/11/10 10:49:24;;;;;;;10.02;2.92;;;;;;;14.73;100.00;102141.94;4988800;28;20053;-50
2022/11/10 10:52:01;;;;;;;14.48;3.50;;;;;;;14.61;100.00;102123.72;5016408;28;20108;-52
2022/11/10 10:54:34;;;;;;;10.95;2.63;;;;;;;14.68;100.00;102142.97;5027087;28;20041;-50
2022/11/10 10:57:23;;;;;;;8.68;2.88;;;;;;;14.60;100.00;102145.84;5005776;28;20026;-46
2022/11/10 10:59:49;;;;;;;14.55;3.40;;;;;;;14.60;100.00;102159.06;5015940;28;20026;-49
2022/11/10 11:02:25;;;;;;;12.43;2.72;;;;;;;14.57;100.00;102159.16;5014314;28;20458;-53
2022/11/10 11:05:18;;;;;;;11.38;3.83;;;;;;;14.61;100.00;102153.75;5026330;28;20037;-48
2022/11/10 11:07:57;;;;;;;12.55;2.88;;;;;;;14.80;100.00;102175.28;5026883;28;20025;-49
2022/11/10 11:10:27;;;;;;;12.00;3.13;;;;;;;14.76;100.00;102146.28;5020419;28;20029;-47
2022/11/10 11:12:53;;;;;;;15.57;3.97;;;;;;;15.09;100.00;102177.94;5012674;28;20102;-52
2022/11/10 11:15:27;;;;;;;9.45;2.88;;;;;;;15.21;100.00;102190.84;5004025;28;20096;-49
2022/11/10 11:18:01;;;;;;;10.27;2.90;;;;;;;15.33;100.00;102194.03;5010263;28;20104;-49
2022/11/10 11:20:37;;;;;;;13.60;3.13;;;;;;;15.39;100.00;102181.47;4995568;28;20034;-48
2022/11/10 11:23:10;;;;;;;17.55;3.15;;;;;;;15.47;100.00;102202.50;5012425;28;20030;-49
2022/11/10 11:25:40;;;;;;;8.25;2.63;;;;;;;15.25;100.00;102165.09;4995076;28;20046;-48
2022/11/10 11:28:18;;;;;;;10.02;2.88;;;;;;;15.39;100.00;102202.69;4995462;28;20373;-48
2022/11/10 11:30:46;;;;;;;9.75;2.70;;;;;;;15.45;100.00;102210.47;5012677;28;20120;-49